createdAt,value
2023-10-21T00:02:19.402Z,3.67
2023-10-21T00:04:47.394Z,5.40
2023-10-21T00:07:15.444Z,5.53
2023-10-21T00:09:43.446Z,2.88
2023-10-21T00:12:13.379Z,4.50
2023-10-21T00:14:45.108Z,5.00
2023-10-21T00:17:13.114Z,7.05
2023-10-21T00:19:41.088Z,7.88
2023-10-21T00:22:09.085Z,5.40
2023-10-21T00:24:37.065Z,4.72
2023-10-21T00:27:05.090Z,3.60
2023-10-21T00:29:33.115Z,5.88
2023-10-21T00:32:02.905Z,4.10
2023-10-21T00:34:30.882Z,4.85
2023-10-21T00:36:58.885Z,4.30
2023-10-21T00:39:26.869Z,3.33
2023-10-21T00:41:54.856Z,3.75
2023-10-21T00:44:22.833Z,2.38
2023-10-21T00:46:50.826Z,4.68
2023-10-21T00:49:20.237Z,2.88
2023-10-21T00:51:49.824Z,5.07
2023-10-21T00:54:18.892Z,5.47
2023-10-21T00:56:46.954Z,3.28
2023-10-21T00:59:15.967Z,3.72
2023-10-21T01:01:45.200Z,5.22
2023-10-21T01:04:14.819Z,5.03
2023-10-21T01:06:45.222Z,4.95
2023-10-21T01:09:15.536Z,3.22
2023-10-21T01:11:43.715Z,4.88
2023-10-21T01:14:11.907Z,7.75
2023-10-21T01:16:39.935Z,3.75
2023-10-21T01:19:08.287Z,4.75
2023-10-21T01:21:36.427Z,4.53
2023-10-21T01:24:06.472Z,7.05
2023-10-21T01:26:35.051Z,4.00
2023-10-21T01:29:03.029Z,6.47
2023-10-21T01:31:33.883Z,4.30
2023-10-21T01:34:02.075Z,4.50
2023-10-21T01:36:30.136Z,6.40
2023-10-21T01:38:58.179Z,3.17
2023-10-21T01:41:27.570Z,5.00
2023-10-21T01:43:55.508Z,4.65
2023-10-21T01:46:23.478Z,3.03
2023-10-21T01:48:51.993Z,3.92
2023-10-21T01:51:20.278Z,5.35
2023-10-21T01:53:48.305Z,4.93
2023-10-21T01:56:16.314Z,4.50
2023-10-21T01:58:45.718Z,3.63
2023-10-21T02:01:13.716Z,2.97
2023-10-21T02:03:43.075Z,5.00
2023-10-21T02:06:11.336Z,8.55
2023-10-21T02:08:39.408Z,4.03
2023-10-21T02:11:07.767Z,5.15
2023-10-21T02:13:35.732Z,7.90
2023-10-21T02:16:11.215Z,6.55
2023-10-21T02:18:39.330Z,4.35
2023-10-21T02:21:07.926Z,4.47
2023-10-21T02:23:36.193Z,5.10
2023-10-21T02:26:05.703Z,3.17
2023-10-21T02:28:33.650Z,6.80
2023-10-21T02:31:05.580Z,4.72
2023-10-21T02:33:33.709Z,3.38
2023-10-21T02:36:01.743Z,3.47
2023-10-21T02:38:30.379Z,3.92
2023-10-21T02:40:58.507Z,3.95
2023-10-21T02:43:26.460Z,3.80
2023-10-21T02:45:54.432Z,5.05
2023-10-21T02:48:23.925Z,4.97
2023-10-21T02:50:51.949Z,1.65
2023-10-21T02:53:19.961Z,3.88
2023-10-21T02:55:47.913Z,2.47
2023-10-21T02:58:15.886Z,3.78
2023-10-21T03:00:43.896Z,2.95
2023-10-21T03:03:11.972Z,5.20
2023-10-21T03:05:43.819Z,3.83
2023-10-21T03:08:11.865Z,10.15
2023-10-21T03:10:39.882Z,3.53
2023-10-21T03:13:07.847Z,5.32
2023-10-21T03:15:36.046Z,5.95
2023-10-21T03:18:04.345Z,4.97
2023-10-21T03:20:34.181Z,3.63
2023-10-21T03:23:04.680Z,3.72
2023-10-21T03:25:34.502Z,5.00
2023-10-21T03:28:02.937Z,2.67
2023-10-21T03:30:31.285Z,5.35
2023-10-21T03:32:59.378Z,5.22
2023-10-21T03:35:27.495Z,8.02
2023-10-21T03:37:55.463Z,6.38
2023-10-21T03:40:24.805Z,5.25
2023-10-21T03:42:52.878Z,4.97
2023-10-21T03:45:21.276Z,8.23
2023-10-21T03:47:49.947Z,6.00
2023-10-21T03:50:17.962Z,6.07
2023-10-21T03:52:45.964Z,5.68
2023-10-21T03:55:13.957Z,4.97
2023-10-21T03:57:43.331Z,3.72
2023-10-21T04:00:13.402Z,4.60
2023-10-21T04:02:41.534Z,5.97
2023-10-21T04:05:10.030Z,4.22
2023-10-21T04:07:38.066Z,3.40
2023-10-21T04:10:06.592Z,6.30
2023-10-21T04:12:34.564Z,6.03
2023-10-21T04:15:04.135Z,5.00
2023-10-21T04:17:32.208Z,4.22
2023-10-21T04:20:00.330Z,4.75
2023-10-21T04:22:28.456Z,4.88
2023-10-21T04:24:56.405Z,4.60
2023-10-21T04:27:24.479Z,3.38
2023-10-21T04:29:52.506Z,4.05
2023-10-21T04:32:21.872Z,4.75
2023-10-21T04:34:49.874Z,4.70
2023-10-21T04:37:17.898Z,3.95
2023-10-21T04:39:45.825Z,3.65
2023-10-21T04:42:14.512Z,4.90
2023-10-21T04:44:44.294Z,4.95
2023-10-21T04:47:12.503Z,6.05
2023-10-21T04:49:44.120Z,7.43
2023-10-21T04:52:13.165Z,7.88
2023-10-21T04:54:41.158Z,4.25
2023-10-21T04:57:09.252Z,4.30
2023-10-21T04:59:37.579Z,6.57
2023-10-21T05:02:05.717Z,7.22
2023-10-21T05:04:34.185Z,7.75
2023-10-21T05:07:04.716Z,6.65
2023-10-21T05:09:33.478Z,6.65
2023-10-21T05:12:02.249Z,6.50
2023-10-21T05:14:30.347Z,4.68
2023-10-21T05:16:58.389Z,5.93
2023-10-21T05:19:26.418Z,4.00
2023-10-21T05:21:54.411Z,5.25
2023-10-21T05:24:23.869Z,6.28
2023-10-21T05:26:53.173Z,2.97
2023-10-21T05:29:21.173Z,3.50
2023-10-21T05:31:50.546Z,5.80
2023-10-21T05:34:20.673Z,6.05
2023-10-21T05:36:48.824Z,7.95
2023-10-21T05:39:17.072Z,7.88
2023-10-21T05:41:46.446Z,13.48
2023-10-21T05:44:14.429Z,8.82
2023-10-21T05:46:42.483Z,7.75
2023-10-21T05:49:10.594Z,4.50
2023-10-21T05:51:38.562Z,2.15
2023-10-21T05:54:06.850Z,3.40
2023-10-21T05:56:34.957Z,4.53
2023-10-21T05:59:05.421Z,4.97
2023-10-21T06:01:33.547Z,5.53
2023-10-21T06:04:01.614Z,4.32
2023-10-21T06:06:29.754Z,3.85
2023-10-21T06:08:57.820Z,4.68
2023-10-21T06:11:25.862Z,2.47
2023-10-21T06:13:53.832Z,5.80
2023-10-21T06:16:23.346Z,6.50
2023-10-21T06:18:51.312Z,6.68
2023-10-21T06:21:19.698Z,6.00
2023-10-21T06:23:47.710Z,10.38
2023-10-21T06:26:16.080Z,13.80
2023-10-21T06:28:44.025Z,10.77
2023-10-21T06:31:12.342Z,19.75
2023-10-21T06:33:41.815Z,18.60
2023-10-21T06:36:10.219Z,12.95
2023-10-21T06:38:38.481Z,9.57
2023-10-21T06:41:14.249Z,13.85
2023-10-21T06:43:43.340Z,13.23
2023-10-21T06:46:11.771Z,10.07
2023-10-21T06:48:41.186Z,13.68
2023-10-21T06:51:09.268Z,12.40
2023-10-21T06:53:37.402Z,12.35
2023-10-21T06:56:12.024Z,16.45
2023-10-21T06:58:40.911Z,26.35
2023-10-21T07:01:09.084Z,20.60
2023-10-21T07:03:38.071Z,12.43
2023-10-21T07:06:07.809Z,6.78
2023-10-21T07:08:37.012Z,5.05
2023-10-21T07:11:05.287Z,5.93
2023-10-21T07:13:33.666Z,3.78
2023-10-21T07:16:07.853Z,3.40
2023-10-21T07:18:35.879Z,4.18
2023-10-21T07:21:03.926Z,3.63
2023-10-21T07:23:33.464Z,2.90
2023-10-21T07:26:01.484Z,6.13
2023-10-21T07:28:30.303Z,2.83
2023-10-21T07:30:58.513Z,3.38
2023-10-21T07:33:26.571Z,3.33
2023-10-21T07:35:54.919Z,4.18
2023-10-21T07:38:23.479Z,5.75
2023-10-21T07:40:52.839Z,5.40
2023-10-21T07:43:21.291Z,2.60
2023-10-21T07:45:49.991Z,3.78
2023-10-21T07:48:18.208Z,4.65
2023-10-21T07:50:46.297Z,2.78
2023-10-21T07:53:14.253Z,4.13
2023-10-21T07:55:42.245Z,2.97
2023-10-21T07:58:11.615Z,3.25
2023-10-21T08:00:41.119Z,4.53
2023-10-21T08:03:09.148Z,3.53
2023-10-21T08:05:38.483Z,6.30
2023-10-21T08:08:06.874Z,5.38
2023-10-21T08:10:35.176Z,3.15
2023-10-21T08:13:03.235Z,4.85
2023-10-21T08:15:32.940Z,5.97
2023-10-21T08:18:01.107Z,6.70
2023-10-21T08:20:29.139Z,3.70
2023-10-21T08:22:56.119Z,4.00
2023-10-21T08:25:24.153Z,4.80
2023-10-21T08:27:52.156Z,3.72
2023-10-21T08:30:21.496Z,4.95
2023-10-21T08:32:52.775Z,4.97
2023-10-21T08:35:20.924Z,5.00
2023-10-21T08:37:48.914Z,3.83
2023-10-21T08:40:17.691Z,2.30
2023-10-21T08:43:00.155Z,5.72
2023-10-21T08:45:32.000Z,4.28
2023-10-21T08:48:03.310Z,3.85
2023-10-21T08:50:36.927Z,4.93
2023-10-21T08:53:07.509Z,3.53
2023-10-21T08:55:37.848Z,2.70
2023-10-21T08:58:07.756Z,5.35
2023-10-21T09:00:36.082Z,5.22
2023-10-21T09:03:06.404Z,5.57
2023-10-21T09:05:35.848Z,3.72
2023-10-21T09:08:05.345Z,3.78
2023-10-21T09:10:36.357Z,6.10
2023-10-21T09:13:15.493Z,3.95
2023-10-21T09:15:46.155Z,5.15
2023-10-21T09:18:16.311Z,4.18
2023-10-21T09:20:50.363Z,4.32
2023-10-21T09:23:18.855Z,6.43
2023-10-21T09:25:50.925Z,7.13
2023-10-21T09:28:23.090Z,7.70
2023-10-21T09:30:59.160Z,6.32
2023-10-21T09:33:28.681Z,5.03
2023-10-21T09:36:19.005Z,7.07
2023-10-21T09:38:52.626Z,4.60
2023-10-21T09:41:22.340Z,7.40
2023-10-21T09:43:52.528Z,6.28
2023-10-21T09:46:26.601Z,6.55
2023-10-21T09:49:01.646Z,5.20
2023-10-21T09:51:35.431Z,5.68
2023-10-21T09:54:12.833Z,6.45
2023-10-21T09:56:42.504Z,5.25
2023-10-21T09:59:11.854Z,4.45
2023-10-21T10:01:41.218Z,3.50
2023-10-21T10:04:12.389Z,5.43
2023-10-21T10:06:43.853Z,4.70
2023-10-21T10:09:14.264Z,5.22
2023-10-21T10:11:43.509Z,7.53
2023-10-21T10:14:12.525Z,4.50
2023-10-21T10:16:46.126Z,4.60
2023-10-21T10:19:17.789Z,6.05
2023-10-21T10:21:53.179Z,5.80
2023-10-21T10:24:23.757Z,4.40
2023-10-21T10:26:54.622Z,7.63
2023-10-21T10:29:27.267Z,6.95
2023-10-21T10:32:17.922Z,7.07
2023-10-21T10:34:54.428Z,6.03
2023-10-21T10:37:36.454Z,5.63
2023-10-21T10:40:19.522Z,7.20
2023-10-21T10:45:15.474Z,6.95
2023-10-21T10:47:44.641Z,7.22
2023-10-21T10:50:24.492Z,5.63
2023-10-21T10:52:52.448Z,8.45
2023-10-21T10:55:20.449Z,5.22
2023-10-21T10:57:49.226Z,7.20
2023-10-21T11:00:21.773Z,5.78
2023-10-21T11:02:50.695Z,4.95
2023-10-21T11:05:22.330Z,7.00
2023-10-21T11:07:51.705Z,6.28
2023-10-21T11:10:25.882Z,4.53
2023-10-21T11:12:54.308Z,5.72
2023-10-21T11:15:23.214Z,5.65
2023-10-21T11:17:52.776Z,5.35
2023-10-21T11:20:22.296Z,3.80
2023-10-21T11:22:50.247Z,5.85
2023-10-21T11:25:20.328Z,4.43
2023-10-21T11:27:49.429Z,5.65
2023-10-21T11:30:17.671Z,5.30
2023-10-21T11:32:47.082Z,8.65
2023-10-21T11:35:16.170Z,6.85
2023-10-21T11:37:45.713Z,5.53
2023-10-21T11:40:17.090Z,8.48
2023-10-21T11:42:59.784Z,4.78
2023-10-21T11:45:30.392Z,6.68
2023-10-21T11:47:58.671Z,5.25
2023-10-21T11:50:26.949Z,3.70
2023-10-21T11:52:56.288Z,7.10
2023-10-21T11:55:40.035Z,6.10
2023-10-21T11:58:25.549Z,6.75
2023-10-21T12:01:10.890Z,5.38
2023-10-21T12:04:07.898Z,4.22
2023-10-21T12:07:01.544Z,4.68
2023-10-21T12:09:56.776Z,5.78
2023-10-21T12:12:42.380Z,4.20
2023-10-21T12:15:36.628Z,9.77
2023-10-21T12:18:24.737Z,4.32
2023-10-21T12:21:06.735Z,4.50
2023-10-21T12:24:00.055Z,3.80
2023-10-21T12:26:53.197Z,5.95
2023-10-21T12:29:38.654Z,4.80
2023-10-21T12:32:23.746Z,4.00
2023-10-21T12:35:08.498Z,4.68
2023-10-21T12:38:14.376Z,5.78
2023-10-21T12:40:56.880Z,7.57
2023-10-21T12:43:26.050Z,4.75
2023-10-21T12:45:55.662Z,3.90
2023-10-21T12:48:23.897Z,5.95
2023-10-21T12:50:51.983Z,3.90
2023-10-21T12:53:20.312Z,4.82
2023-10-21T12:55:48.669Z,3.75
2023-10-21T12:58:16.663Z,4.03
2023-10-21T13:00:46.164Z,6.25
2023-10-21T13:03:14.817Z,5.53
2023-10-21T13:05:44.892Z,5.00
2023-10-21T13:08:13.097Z,4.95
2023-10-21T13:10:41.375Z,5.88
2023-10-21T13:13:10.335Z,4.00
2023-10-21T13:15:38.896Z,3.92
2023-10-21T13:18:08.865Z,4.50
2023-10-21T13:20:37.255Z,3.75
2023-10-21T13:23:05.717Z,7.00
2023-10-21T13:25:35.035Z,5.78
2023-10-21T13:28:06.623Z,9.38
2023-10-21T13:30:35.183Z,5.20
2023-10-21T13:33:05.339Z,4.38
2023-10-21T13:35:35.640Z,3.40
2023-10-21T13:38:03.991Z,3.92
2023-10-21T13:40:32.288Z,9.32
2023-10-21T13:43:00.417Z,3.70
2023-10-21T13:45:30.086Z,5.47
2023-10-21T13:48:00.389Z,3.70
2023-10-21T13:50:29.830Z,4.13
2023-10-21T13:53:05.943Z,3.05
2023-10-21T13:55:34.147Z,5.47
2023-10-21T13:58:02.131Z,4.85
2023-10-21T14:00:39.031Z,4.40
2023-10-21T14:03:11.598Z,3.40
2023-10-21T14:05:40.361Z,3.78
2023-10-21T14:08:12.372Z,3.72
2023-10-21T14:10:43.960Z,4.68
2023-10-21T14:13:16.803Z,3.97
2023-10-21T14:15:46.640Z,4.50
2023-10-21T14:18:14.787Z,3.55
2023-10-21T14:20:43.330Z,4.03
2023-10-21T14:23:16.128Z,5.55
2023-10-21T14:25:46.497Z,5.07
2023-10-21T14:28:15.688Z,4.95
2023-10-21T14:30:47.806Z,4.20
2023-10-21T14:33:18.219Z,4.63
2023-10-21T14:35:47.759Z,5.25
2023-10-21T14:38:18.307Z,3.45
2023-10-21T14:40:47.077Z,6.68
2023-10-21T14:43:16.293Z,4.72
2023-10-21T14:45:45.721Z,5.22
2023-10-21T14:48:14.582Z,5.60
2023-10-21T14:50:43.679Z,6.22
2023-10-21T14:53:12.362Z,3.22
2023-10-21T14:55:52.339Z,4.10
2023-10-21T14:58:23.975Z,4.55
2023-10-21T15:00:52.822Z,5.15
2023-10-21T15:03:22.260Z,4.65
2023-10-21T15:05:51.151Z,3.85
2023-10-21T15:08:23.774Z,5.30
2023-10-21T15:10:53.740Z,6.53
2023-10-21T15:13:24.314Z,6.32
2023-10-21T15:16:00.619Z,6.22
2023-10-21T15:18:28.908Z,4.78
2023-10-21T15:21:04.685Z,5.47
2023-10-21T15:23:35.396Z,7.80
2023-10-21T15:26:05.092Z,8.90
2023-10-21T15:28:34.243Z,8.73
2023-10-21T15:31:02.226Z,7.75
2023-10-21T15:33:30.226Z,6.18
2023-10-21T15:35:58.200Z,5.28
2023-10-21T15:38:26.156Z,4.90
2023-10-21T15:40:54.109Z,5.70
2023-10-21T15:43:23.524Z,7.15
2023-10-21T15:46:00.041Z,7.10
2023-10-21T15:48:28.174Z,6.55
2023-10-21T15:51:08.347Z,5.28
2023-10-21T15:53:36.347Z,4.57
2023-10-21T15:56:04.406Z,8.07
2023-10-21T15:58:33.773Z,4.53
2023-10-21T16:01:01.766Z,6.22
2023-10-21T16:03:29.959Z,4.85
2023-10-21T16:05:58.711Z,5.60
2023-10-21T16:08:26.725Z,4.97
2023-10-21T16:11:01.900Z,8.93
2023-10-21T16:13:29.893Z,7.13
2023-10-21T16:16:00.667Z,10.27
2023-10-21T16:18:28.973Z,10.82
2023-10-21T16:20:57.023Z,6.45
2023-10-21T16:23:24.998Z,10.25
2023-10-21T16:25:52.950Z,13.15
2023-10-21T16:28:20.949Z,7.68
2023-10-21T16:30:48.980Z,8.75
2023-10-21T16:33:18.472Z,9.50
2023-10-21T16:35:47.126Z,6.90
2023-10-21T16:38:15.933Z,5.38
2023-10-21T16:40:44.350Z,7.93
2023-10-21T16:43:12.660Z,8.13
2023-10-21T16:45:44.127Z,5.78
2023-10-21T16:48:12.293Z,5.95
2023-10-21T16:50:41.837Z,5.72
2023-10-21T16:53:10.657Z,5.72
2023-10-21T16:55:38.799Z,6.35
2023-10-21T16:58:06.764Z,7.00
2023-10-21T17:00:34.767Z,8.65
2023-10-21T17:03:05.631Z,9.13
2023-10-21T17:05:35.658Z,8.27
2023-10-21T17:08:06.072Z,7.25
2023-10-21T17:10:35.237Z,7.93
2023-10-21T17:13:03.253Z,7.55
2023-10-21T17:15:31.728Z,8.60
2023-10-21T17:17:59.986Z,6.97
2023-10-21T17:20:28.799Z,8.15
2023-10-21T17:22:57.297Z,8.32
2023-10-21T17:25:27.879Z,8.95
2023-10-21T17:27:55.911Z,13.48
2023-10-21T17:30:23.920Z,7.05
2023-10-21T17:32:52.526Z,5.82
2023-10-21T17:35:23.159Z,9.95
2023-10-21T17:37:52.260Z,13.18
2023-10-21T17:40:20.266Z,10.90
2023-10-21T17:42:49.704Z,8.88
2023-10-21T17:45:18.320Z,11.40
2023-10-21T17:47:46.335Z,6.88
2023-10-21T17:50:15.037Z,7.90
2023-10-21T17:52:43.058Z,9.07
2023-10-21T17:55:11.015Z,8.68
2023-10-21T17:57:41.009Z,5.97
2023-10-21T18:00:12.247Z,4.93
2023-10-21T18:02:40.464Z,4.85
2023-10-21T18:05:08.985Z,7.65
2023-10-21T18:07:36.922Z,5.07
2023-10-21T18:10:05.639Z,2.85
2023-10-21T18:12:33.794Z,5.07
2023-10-21T18:15:04.203Z,4.25
2023-10-21T18:17:35.239Z,5.15
2023-10-21T18:20:05.170Z,3.55
2023-10-21T18:22:33.476Z,3.60
2023-10-21T18:25:01.479Z,5.47
2023-10-21T18:27:30.701Z,4.82
2023-10-21T18:29:58.790Z,4.20
2023-10-21T18:32:26.759Z,3.30
2023-10-21T18:34:56.112Z,4.57
2023-10-21T18:37:24.048Z,3.15
2023-10-21T18:39:52.045Z,4.75
2023-10-21T18:42:19.997Z,6.18
2023-10-21T18:44:48.015Z,6.05
2023-10-21T18:47:16.016Z,4.68
2023-10-21T18:49:43.991Z,3.53
2023-10-21T18:52:17.428Z,5.25
2023-10-21T18:54:45.638Z,3.67
2023-10-21T18:57:13.719Z,7.03
2023-10-21T18:59:41.920Z,6.35
2023-10-21T19:02:15.978Z,3.38
2023-10-21T19:04:45.639Z,7.68
2023-10-21T19:07:16.089Z,3.65
2023-10-21T19:09:44.483Z,5.05
2023-10-21T19:12:12.546Z,3.85
2023-10-21T19:14:40.607Z,5.32
2023-10-21T19:17:08.618Z,5.55
2023-10-21T19:19:37.214Z,5.35
2023-10-21T19:22:05.524Z,6.00
2023-10-21T19:24:34.986Z,3.30
2023-10-21T19:27:02.994Z,6.65
2023-10-21T19:29:31.626Z,4.28
2023-10-21T19:31:59.781Z,4.93
2023-10-21T19:34:28.758Z,4.57
2023-10-21T19:36:57.173Z,4.07
2023-10-21T19:39:28.074Z,5.65
2023-10-21T19:41:57.637Z,5.32
2023-10-21T19:44:27.027Z,4.07
2023-10-21T19:46:56.207Z,3.28
2023-10-21T19:49:24.915Z,6.72
2023-10-21T19:51:53.072Z,5.68
2023-10-21T19:54:21.083Z,7.03
2023-10-21T19:56:49.080Z,4.57
2023-10-21T19:59:18.431Z,5.13
2023-10-21T20:01:46.468Z,4.15
2023-10-21T20:04:14.800Z,6.25
2023-10-21T20:06:42.885Z,4.18
2023-10-21T20:09:12.205Z,5.13
2023-10-21T20:11:40.374Z,3.42
2023-10-21T20:14:08.459Z,4.60
2023-10-21T20:16:37.811Z,2.67
2023-10-21T20:19:05.851Z,3.00
2023-10-21T20:21:37.027Z,3.83
2023-10-21T20:24:05.728Z,4.10
2023-10-21T20:26:33.860Z,6.72
2023-10-21T20:29:01.850Z,4.47
2023-10-21T20:31:32.796Z,3.42
2023-10-21T20:34:02.657Z,3.17
2023-10-21T20:36:30.841Z,3.40
2023-10-21T20:38:58.860Z,3.83
2023-10-21T20:41:26.824Z,3.92
2023-10-21T20:43:54.794Z,5.60
2023-10-21T20:46:22.922Z,4.97
2023-10-21T20:48:50.966Z,4.88
2023-10-21T20:51:20.429Z,5.47
2023-10-21T20:53:48.422Z,4.10
2023-10-21T20:56:22.169Z,2.92
2023-10-21T21:03:49.745Z,3.28
2023-10-21T21:06:17.825Z,3.75
2023-10-21T21:08:47.183Z,4.30
2023-10-21T21:11:15.259Z,4.03
2023-10-21T21:13:43.666Z,4.22
2023-10-21T21:16:12.128Z,3.58
2023-10-21T21:18:41.328Z,3.53
2023-10-21T21:21:09.561Z,4.63
2023-10-21T21:23:37.504Z,4.28
2023-10-21T21:26:06.877Z,2.97
2023-10-21T21:28:34.940Z,3.47
2023-10-21T21:31:02.961Z,3.25
2023-10-21T21:33:31.121Z,4.30
2023-10-21T21:36:00.220Z,4.80
2023-10-21T21:38:28.703Z,3.65
2023-10-21T21:40:56.674Z,6.30
2023-10-21T21:43:27.950Z,5.90
2023-10-21T21:45:56.785Z,4.25
2023-10-21T21:48:24.936Z,4.45
2023-10-21T21:50:53.054Z,3.22
2023-10-21T21:53:21.005Z,4.03
2023-10-21T21:55:55.373Z,3.40
2023-10-21T21:58:23.420Z,3.58
2023-10-21T22:00:55.123Z,3.45
2023-10-21T22:03:23.615Z,3.72
2023-10-21T22:05:53.805Z,3.55
2023-10-21T22:08:22.225Z,4.95
2023-10-21T22:10:50.659Z,3.90
2023-10-21T22:13:19.221Z,4.55
2023-10-21T22:15:47.525Z,18.55
2023-10-21T22:18:16.990Z,5.75
2023-10-21T22:20:45.222Z,3.60
2023-10-21T22:23:13.298Z,3.97
2023-10-21T22:25:41.391Z,5.43
2023-10-21T22:28:13.093Z,4.35
2023-10-21T22:30:42.365Z,4.40
2023-10-21T22:33:10.483Z,4.70
2023-10-21T22:35:40.404Z,4.63
2023-10-21T22:38:09.070Z,3.25
2023-10-21T22:40:37.096Z,5.68
2023-10-21T22:43:05.084Z,2.78
2023-10-21T22:45:34.230Z,3.42
2023-10-21T22:48:03.147Z,4.63
2023-10-21T22:50:31.326Z,5.70
2023-10-21T22:53:01.367Z,3.15
2023-10-21T22:55:29.329Z,4.05
2023-10-21T22:57:57.727Z,5.57
2023-10-21T23:00:28.278Z,2.78
2023-10-21T23:02:59.935Z,5.18
2023-10-21T23:05:28.447Z,3.47
2023-10-21T23:07:58.847Z,6.80
2023-10-21T23:10:29.761Z,3.13
2023-10-21T23:12:57.942Z,3.97
2023-10-21T23:15:25.948Z,5.20
2023-10-21T23:17:54.488Z,4.22
2023-10-21T23:20:22.497Z,3.45
2023-10-21T23:22:50.493Z,2.58
2023-10-21T23:25:21.375Z,4.15
2023-10-21T23:27:54.005Z,3.67
2023-10-21T23:30:22.596Z,4.15
2023-10-21T23:32:51.595Z,3.95
2023-10-21T23:35:20.198Z,4.35
2023-10-21T23:37:48.833Z,7.05
2023-10-21T23:40:17.041Z,4.75
2023-10-21T23:42:47.448Z,6.63
2023-10-21T23:45:17.382Z,5.13
2023-10-21T23:47:45.658Z,3.55
2023-10-21T23:50:15.730Z,4.25
2023-10-21T23:52:44.237Z,5.22
2023-10-21T23:55:12.974Z,3.08
2023-10-21T23:57:42.186Z,3.00
